sensor_id;sensor_type;location;lat;lon;timestamp;pressure;altitude;pressure_sealevel;temperature;humidity
13422;BME280;6782;55.904;13.396;2023-01-27T00:00:34;102154.44;;;1.14;100.00
13422;BME280;6782;55.904;13.396;2023-01-27T00:03:21;102156.50;;;1.01;100.00
13422;BME280;6782;55.904;13.396;2023-01-27T00:06:08;102168.56;;;0.99;100.00
13422;BME280;6782;55.904;13.396;2023-01-27T00:08:57;102157.13;;;0.94;100.00
13422;BME280;6782;55.904;13.396;2023-01-27T00:11:46;102161.38;;;0.92;100.00
13422;BME280;6782;55.904;13.396;2023-01-27T00:14:51;102161.31;;;0.90;100.00
13422;BME280;6782;55.904;13.396;2023-01-27T00:17:38;102171.53;;;0.86;100.00
13422;BME280;6782;55.904;13.396;2023-01-27T00:20:25;102177.09;;;0.95;100.00
13422;BME280;6782;55.904;13.396;2023-01-27T00:23:30;102177.28;;;1.01;100.00
13422;BME280;6782;55.904;13.396;2023-01-27T00:26:34;102182.44;;;0.99;100.00
13422;BME280;6782;55.904;13.396;2023-01-27T00:29:23;102170.06;;;0.92;100.00
13422;BME280;6782;55.904;13.396;2023-01-27T00:32:10;102176.03;;;0.90;100.00
13422;BME280;6782;55.904;13.396;2023-01-27T00:35:14;102182.16;;;0.92;100.00
13422;BME280;6782;55.904;13.396;2023-01-27T00:38:02;102171.94;;;0.74;100.00
13422;BME280;6782;55.904;13.396;2023-01-27T00:40:49;102170.03;;;0.70;100.00
13422;BME280;6782;55.904;13.396;2023-01-27T00:43:51;102184.63;;;0.67;100.00
13422;BME280;6782;55.904;13.396;2023-01-27T00:46:40;102186.47;;;0.69;100.00
13422;BME280;6782;55.904;13.396;2023-01-27T00:49:27;102200.19;;;0.67;100.00
13422;BME280;6782;55.904;13.396;2023-01-27T00:52:15;102195.81;;;0.66;100.00
13422;BME280;6782;55.904;13.396;2023-01-27T00:55:02;102202.38;;;0.56;100.00
13422;BME280;6782;55.904;13.396;2023-01-27T00:57:49;102196.78;;;0.47;100.00
13422;BME280;6782;55.904;13.396;2023-01-27T01:00:36;102206.41;;;0.49;100.00
13422;BME280;6782;55.904;13.396;2023-01-27T01:03:26;102210.47;;;0.43;100.00
13422;BME280;6782;55.904;13.396;2023-01-27T01:06:17;102209.44;;;0.39;100.00
13422;BME280;6782;55.904;13.396;2023-01-27T01:09:04;102209.59;;;0.42;100.00
13422;BME280;6782;55.904;13.396;2023-01-27T01:11:51;102208.16;;;0.28;100.00
13422;BME280;6782;55.904;13.396;2023-01-27T01:14:39;102203.63;;;0.24;100.00
13422;BME280;6782;55.904;13.396;2023-01-27T01:17:26;102203.50;;;0.21;100.00
13422;BME280;6782;55.904;13.396;2023-01-27T01:20:16;102212.75;;;0.15;100.00
13422;BME280;6782;55.904;13.396;2023-01-27T01:23:03;102218.69;;;0.12;100.00
13422;BME280;6782;55.904;13.396;2023-01-27T01:25:54;102218.63;;;0.11;100.00
13422;BME280;6782;55.904;13.396;2023-01-27T01:28:42;102214.88;;;0.04;100.00
13422;BME280;6782;55.904;13.396;2023-01-27T01:31:30;102219.75;;;-0.04;100.00
13422;BME280;6782;55.904;13.396;2023-01-27T01:34:17;102223.91;;;-0.07;100.00
13422;BME280;6782;55.904;13.396;2023-01-27T01:37:05;102222.97;;;-0.09;100.00
13422;BME280;6782;55.904;13.396;2023-01-27T01:39:52;102235.31;;;-0.04;100.00
13422;BME280;6782;55.904;13.396;2023-01-27T01:42:53;102230.94;;;-0.05;100.00
13422;BME280;6782;55.904;13.396;2023-01-27T01:45:47;102243.56;;;-0.12;100.00
13422;BME280;6782;55.904;13.396;2023-01-27T01:48:36;102263.38;;;-0.14;100.00
13422;BME280;6782;55.904;13.396;2023-01-27T01:51:29;102254.69;;;-0.15;100.00
13422;BME280;6782;55.904;13.396;2023-01-27T01:54:21;102262.28;;;-0.19;100.00
13422;BME280;6782;55.904;13.396;2023-01-27T01:57:14;102271.84;;;-0.18;100.00
13422;BME280;6782;55.904;13.396;2023-01-27T02:00:04;102265.56;;;-0.23;100.00
13422;BME280;6782;55.904;13.396;2023-01-27T02:02:52;102265.44;;;-0.26;100.00
13422;BME280;6782;55.904;13.396;2023-01-27T02:05:42;102274.56;;;-0.34;100.00
13422;BME280;6782;55.904;13.396;2023-01-27T02:08:34;102270.19;;;-0.35;100.00
13422;BME280;6782;55.904;13.396;2023-01-27T02:11:24;102279.88;;;-0.31;100.00
13422;BME280;6782;55.904;13.396;2023-01-27T02:14:12;102283.97;;;-0.36;100.00
13422;BME280;6782;55.904;13.396;2023-01-27T02:17:01;102275.38;;;-0.35;100.00
13422;BME280;6782;55.904;13.396;2023-01-27T02:19:59;102273.47;;;-0.39;100.00
13422;BME280;6782;55.904;13.396;2023-01-27T02:22:51;102281.28;;;-0.38;100.00
13422;BME280;6782;55.904;13.396;2023-01-27T02:25:50;102282.88;;;-0.41;100.00
13422;BME280;6782;55.904;13.396;2023-01-27T02:28:38;102282.19;;;-0.37;100.00
13422;BME280;6782;55.904;13.396;2023-01-27T02:31:26;102291.13;;;-0.50;100.00
13422;BME280;6782;55.904;13.396;2023-01-27T02:34:16;102283.28;;;-0.51;100.00
13422;BME280;6782;55.904;13.396;2023-01-27T02:37:07;102291.84;;;-0.52;100.00
13422;BME280;6782;55.904;13.396;2023-01-27T02:39:56;102292.59;;;-0.55;100.00
13422;BME280;6782;55.904;13.396;2023-01-27T02:42:46;102305.91;;;-0.47;100.00
13422;BME280;6782;55.904;13.396;2023-01-27T02:45:33;102295.25;;;-0.53;100.00
13422;BME280;6782;55.904;13.396;2023-01-27T02:48:20;102295.53;;;-0.47;100.00
13422;BME280;6782;55.904;13.396;2023-01-27T02:51:08;102298.59;;;-0.56;100.00
13422;BME280;6782;55.904;13.396;2023-01-27T02:53:55;102289.22;;;-0.54;100.00
13422;BME280;6782;55.904;13.396;2023-01-27T02:56:42;102314.38;;;-0.51;100.00
13422;BME280;6782;55.904;13.396;2023-01-27T02:59:31;102315.84;;;-0.56;100.00
13422;BME280;6782;55.904;13.396;2023-01-27T03:02:18;102321.00;;;-0.56;100.00
13422;BME280;6782;55.904;13.396;2023-01-27T03:05:08;102321.00;;;-0.56;100.00
13422;BME280;6782;55.904;13.396;2023-01-27T03:07:55;102308.75;;;-0.60;100.00
13422;BME280;6782;55.904;13.396;2023-01-27T03:10:42;102319.13;;;-0.60;100.00
13422;BME280;6782;55.904;13.396;2023-01-27T03:13:29;102299.13;;;-0.63;100.00
13422;BME280;6782;55.904;13.396;2023-01-27T03:16:18;102300.81;;;-0.64;100.00
13422;BME280;6782;55.904;13.396;2023-01-27T03:19:23;102303.91;;;-0.72;100.00
13422;BME280;6782;55.904;13.396;2023-01-27T03:22:11;102311.44;;;-0.77;100.00
13422;BME280;6782;55.904;13.396;2023-01-27T03:24:58;102304.56;;;-0.76;100.00
13422;BME280;6782;55.904;13.396;2023-01-27T03:27:45;102308.94;;;-0.75;100.00
13422;BME280;6782;55.904;13.396;2023-01-27T03:30:32;102311.38;;;-0.78;100.00
13422;BME280;6782;55.904;13.396;2023-01-27T03:33:21;102317.44;;;-0.78;100.00
13422;BME280;6782;55.904;13.396;2023-01-27T03:36:08;102306.34;;;-0.75;100.00
13422;BME280;6782;55.904;13.396;2023-01-27T03:39:13;102303.44;;;-0.81;100.00
13422;BME280;6782;55.904;13.396;2023-01-27T03:42:17;102299.16;;;-0.81;100.00
13422;BME280;6782;55.904;13.396;2023-01-27T03:45:21;102288.34;;;-0.90;100.00
13422;BME280;6782;55.904;13.396;2023-01-27T03:48:27;102302.34;;;-0.86;100.00
13422;BME280;6782;55.904;13.396;2023-01-27T03:51:17;102292.00;;;-0.86;100.00
13422;BME280;6782;55.904;13.396;2023-01-27T03:54:05;102296.38;;;-0.85;100.00
13422;BME280;6782;55.904;13.396;2023-01-27T03:56:52;102302.19;;;-0.89;100.00
13422;BME280;6782;55.904;13.396;2023-01-27T03:59:39;102291.03;;;-0.88;100.00
13422;BME280;6782;55.904;13.396;2023-01-27T04:02:26;102274.41;;;-0.93;100.00
13422;BME280;6782;55.904;13.396;2023-01-27T04:05:32;102289.72;;;-0.98;100.00
13422;BME280;6782;55.904;13.396;2023-01-27T04:08:36;102271.34;;;-1.02;100.00
13422;BME280;6782;55.904;13.396;2023-01-27T04:11:24;102276.47;;;-1.04;100.00
13422;BME280;6782;55.904;13.396;2023-01-27T04:14:30;102285.13;;;-1.03;100.00
13422;BME280;6782;55.904;13.396;2023-01-27T04:17:18;102282.19;;;-1.11;100.00
13422;BME280;6782;55.904;13.396;2023-01-27T04:20:06;102281.88;;;-1.17;100.00
13422;BME280;6782;55.904;13.396;2023-01-27T04:22:54;102288.97;;;-1.13;100.00
13422;BME280;6782;55.904;13.396;2023-01-27T04:25:42;102290.44;;;-1.18;100.00
13422;BME280;6782;55.904;13.396;2023-01-27T04:28:29;102286.75;;;-1.23;100.00
13422;BME280;6782;55.904;13.396;2023-01-27T04:31:17;102296.97;;;-1.26;100.00
13422;BME280;6782;55.904;13.396;2023-01-27T04:34:04;102313.44;;;-1.24;100.00
13422;BME280;6782;55.904;13.396;2023-01-27T04:36:52;102299.31;;;-1.31;100.00
13422;BME280;6782;55.904;13.396;2023-01-27T04:39:40;102297.41;;;-1.35;100.00
13422;BME280;6782;55.904;13.396;2023-01-27T04:42:30;102298.78;;;-1.41;100.00
13422;BME280;6782;55.904;13.396;2023-01-27T04:45:17;102301.06;;;-1.47;100.00
13422;BME280;6782;55.904;13.396;2023-01-27T04:48:05;102306.09;;;-1.50;100.00
13422;BME280;6782;55.904;13.396;2023-01-27T04:50:52;102299.56;;;-1.60;100.00
13422;BME280;6782;55.904;13.396;2023-01-27T04:53:39;102292.56;;;-1.62;100.00
13422;BME280;6782;55.904;13.396;2023-01-27T04:56:30;102291.56;;;-1.64;100.00
13422;BME280;6782;55.904;13.396;2023-01-27T04:59:18;102286.59;;;-1.77;100.00
13422;BME280;6782;55.904;13.396;2023-01-27T05:02:05;102294.66;;;-1.71;100.00
13422;BME280;6782;55.904;13.396;2023-01-27T05:04:52;102295.09;;;-1.80;100.00
13422;BME280;6782;55.904;13.396;2023-01-27T05:07:39;102305.34;;;-1.81;100.00
13422;BME280;6782;55.904;13.396;2023-01-27T05:10:26;102309.38;;;-1.86;100.00
13422;BME280;6782;55.904;13.396;2023-01-27T05:13:15;102324.28;;;-1.82;100.00
13422;BME280;6782;55.904;13.396;2023-01-27T05:16:08;102346.88;;;-1.78;100.00
13422;BME280;6782;55.904;13.396;2023-01-27T05:18:55;102358.03;;;-1.79;100.00
13422;BME280;6782;55.904;13.396;2023-01-27T05:21:43;102359.97;;;-1.75;100.00
13422;BME280;6782;55.904;13.396;2023-01-27T05:24:30;102369.81;;;-1.84;100.00
13422;BME280;6782;55.904;13.396;2023-01-27T05:27:17;102369.81;;;-1.84;100.00
13422;BME280;6782;55.904;13.396;2023-01-27T05:30:07;102379.44;;;-1.82;100.00
13422;BME280;6782;55.904;13.396;2023-01-27T05:32:54;102383.34;;;-1.90;100.00
13422;BME280;6782;55.904;13.396;2023-01-27T05:35:41;102389.38;;;-1.90;100.00
13422;BME280;6782;55.904;13.396;2023-01-27T05:38:29;102393.75;;;-1.88;100.00
13422;BME280;6782;55.904;13.396;2023-01-27T05:41:17;102405.38;;;-1.97;100.00
13422;BME280;6782;55.904;13.396;2023-01-27T05:44:05;102401.09;;;-1.96;100.00
13422;BME280;6782;55.904;13.396;2023-01-27T05:46:53;102403.28;;;-2.04;100.00
13422;BME280;6782;55.904;13.396;2023-01-27T05:49:40;102417.16;;;-2.02;100.00
13422;BME280;6782;55.904;13.396;2023-01-27T05:52:28;102427.34;;;-2.05;100.00
13422;BME280;6782;55.904;13.396;2023-01-27T05:55:15;102420.41;;;-2.06;100.00
13422;BME280;6782;55.904;13.396;2023-01-27T05:58:02;102418.63;;;-2.07;100.00
13422;BME280;6782;55.904;13.396;2023-01-27T06:00:49;102429.91;;;-2.05;100.00
13422;BME280;6782;55.904;13.396;2023-01-27T06:03:39;102440.91;;;-2.09;100.00
13422;BME280;6782;55.904;13.396;2023-01-27T06:06:27;102439.84;;;-2.12;100.00
13422;BME280;6782;55.904;13.396;2023-01-27T06:09:14;102440.56;;;-2.15;100.00
13422;BME280;6782;55.904;13.396;2023-01-27T06:12:01;102452.69;;;-2.14;100.00
13422;BME280;6782;55.904;13.396;2023-01-27T06:14:49;102450.56;;;-2.21;100.00
13422;BME280;6782;55.904;13.396;2023-01-27T06:17:36;102451.28;;;-2.23;100.00
13422;BME280;6782;55.904;13.396;2023-01-27T06:20:25;102450.25;;;-2.27;100.00
13422;BME280;6782;55.904;13.396;2023-01-27T06:23:14;102452.81;;;-2.27;100.00
13422;BME280;6782;55.904;13.396;2023-01-27T06:26:03;102455.22;;;-2.30;100.00
13422;BME280;6782;55.904;13.396;2023-01-27T06:28:50;102456.66;;;-2.35;100.00
13422;BME280;6782;55.904;13.396;2023-01-27T06:31:37;102462.72;;;-2.34;100.00
13422;BME280;6782;55.904;13.396;2023-01-27T06:34:24;102459.53;;;-2.45;100.00
13422;BME280;6782;55.904;13.396;2023-01-27T06:37:13;102448.19;;;-2.63;100.00
13422;BME280;6782;55.904;13.396;2023-01-27T06:40:00;102476.13;;;-2.56;100.00
13422;BME280;6782;55.904;13.396;2023-01-27T06:42:47;102488.41;;;-2.52;100.00
13422;BME280;6782;55.904;13.396;2023-01-27T06:45:34;102498.75;;;-2.52;100.00
13422;BME280;6782;55.904;13.396;2023-01-27T06:48:21;102508.00;;;-2.56;100.00
13422;BME280;6782;55.904;13.396;2023-01-27T06:51:09;102511.81;;;-2.49;100.00
13422;BME280;6782;55.904;13.396;2023-01-27T06:53:57;102502.75;;;-2.42;100.00
13422;BME280;6782;55.904;13.396;2023-01-27T06:56:45;102523.47;;;-2.41;100.00
13422;BME280;6782;55.904;13.396;2023-01-27T06:59:33;102522.50;;;-2.43;100.00
13422;BME280;6782;55.904;13.396;2023-01-27T07:02:20;102522.06;;;-2.36;100.00
13422;BME280;6782;55.904;13.396;2023-01-27T07:05:08;102528.81;;;-2.38;100.00
13422;BME280;6782;55.904;13.396;2023-01-27T07:07:56;102533.66;;;-2.44;100.00
13422;BME280;6782;55.904;13.396;2023-01-27T07:10:44;102524.13;;;-2.45;100.00
13422;BME280;6782;55.904;13.396;2023-01-27T07:13:32;102535.44;;;-2.43;100.00
13422;BME280;6782;55.904;13.396;2023-01-27T07:16:19;102521.34;;;-2.48;100.00
13422;BME280;6782;55.904;13.396;2023-01-27T07:19:06;102537.03;;;-2.45;100.00
13422;BME280;6782;55.904;13.396;2023-01-27T07:21:53;102548.97;;;-2.47;100.00
13422;BME280;6782;55.904;13.396;2023-01-27T07:24:40;102551.75;;;-2.44;100.00
13422;BME280;6782;55.904;13.396;2023-01-27T07:27:29;102562.53;;;-2.36;100.00
13422;BME280;6782;55.904;13.396;2023-01-27T07:30:16;102572.69;;;-2.39;100.00
13422;BME280;6782;55.904;13.396;2023-01-27T07:33:04;102583.91;;;-2.39;100.00
13422;BME280;6782;55.904;13.396;2023-01-27T07:35:52;102591.00;;;-2.35;100.00
13422;BME280;6782;55.904;13.396;2023-01-27T07:38:40;102592.81;;;-2.34;100.00
13422;BME280;6782;55.904;13.396;2023-01-27T07:41:27;102604.56;;;-2.24;100.00
13422;BME280;6782;55.904;13.396;2023-01-27T07:44:15;102615.25;;;-2.33;100.00
13422;BME280;6782;55.904;13.396;2023-01-27T07:47:02;102622.72;;;-2.23;100.00
13422;BME280;6782;55.904;13.396;2023-01-27T07:49:50;102612.22;;;-2.40;100.00
13422;BME280;6782;55.904;13.396;2023-01-27T07:52:37;102614.34;;;-2.48;100.00
13422;BME280;6782;55.904;13.396;2023-01-27T07:55:24;102628.25;;;-2.46;100.00
13422;BME280;6782;55.904;13.396;2023-01-27T07:58:11;102627.91;;;-2.37;100.00
13422;BME280;6782;55.904;13.396;2023-01-27T08:01:03;102623.81;;;-2.34;100.00
13422;BME280;6782;55.904;13.396;2023-01-27T08:03:51;102631.13;;;-2.27;100.00
13422;BME280;6782;55.904;13.396;2023-01-27T08:06:38;102641.78;;;-2.21;100.00
13422;BME280;6782;55.904;13.396;2023-01-27T08:09:25;102629.69;;;-2.22;100.00
13422;BME280;6782;55.904;13.396;2023-01-27T08:12:12;102640.41;;;-2.16;100.00
13422;BME280;6782;55.904;13.396;2023-01-27T08:14:59;102646.59;;;-2.12;100.00
13422;BME280;6782;55.904;13.396;2023-01-27T08:17:53;102652.66;;;-1.97;100.00
13422;BME280;6782;55.904;13.396;2023-01-27T08:20:40;102656.41;;;-1.92;100.00
13422;BME280;6782;55.904;13.396;2023-01-27T08:23:27;102650.50;;;-1.90;100.00
13422;BME280;6782;55.904;13.396;2023-01-27T08:26:15;102647.13;;;-1.88;100.00
13422;BME280;6782;55.904;13.396;2023-01-27T08:29:02;102655.69;;;-1.75;100.00
13422;BME280;6782;55.904;13.396;2023-01-27T08:31:49;102653.81;;;-1.77;100.00
13422;BME280;6782;55.904;13.396;2023-01-27T08:34:39;102657.56;;;-1.72;100.00
13422;BME280;6782;55.904;13.396;2023-01-27T08:37:26;102656.56;;;-1.74;100.00
13422;BME280;6782;55.904;13.396;2023-01-27T08:40:13;102647.88;;;-1.60;100.00
13422;BME280;6782;55.904;13.396;2023-01-27T08:43:00;102648.69;;;-1.61;100.00
13422;BME280;6782;55.904;13.396;2023-01-27T08:45:50;102656.97;;;-1.52;100.00
13422;BME280;6782;55.904;13.396;2023-01-27T08:48:39;102661.91;;;-1.41;100.00
13422;BME280;6782;55.904;13.396;2023-01-27T08:51:27;102654.88;;;-1.43;100.00
13422;BME280;6782;55.904;13.396;2023-01-27T08:54:15;102662.75;;;-1.26;100.00
13422;BME280;6782;55.904;13.396;2023-01-27T08:57:02;102673.69;;;-1.15;100.00
13422;BME280;6782;55.904;13.396;2023-01-27T08:59:49;102683.69;;;-1.06;100.00
13422;BME280;6782;55.904;13.396;2023-01-27T09:02:36;102682.31;;;-1.16;100.00
13422;BME280;6782;55.904;13.396;2023-01-27T09:05:23;102675.97;;;-1.05;100.00
13422;BME280;6782;55.904;13.396;2023-01-27T09:08:12;102676.72;;;-1.07;100.00
13422;BME280;6782;55.904;13.396;2023-01-27T09:11:07;102682.16;;;-0.87;100.00
13422;BME280;6782;55.904;13.396;2023-01-27T09:13:55;102675.78;;;-0.93;100.00
13422;BME280;6782;55.904;13.396;2023-01-27T09:16:42;102684.84;;;-0.85;100.00
13422;BME280;6782;55.904;13.396;2023-01-27T09:19:29;102684.13;;;-0.83;100.00
13422;BME280;6782;55.904;13.396;2023-01-27T09:22:16;102691.25;;;-0.63;100.00
13422;BME280;6782;55.904;13.396;2023-01-27T09:25:06;102684.44;;;-0.60;100.00
13422;BME280;6782;55.904;13.396;2023-01-27T09:27:54;102678.75;;;-0.53;100.00
13422;BME280;6782;55.904;13.396;2023-01-27T09:30:42;102683.06;;;-0.54;100.00
13422;BME280;6782;55.904;13.396;2023-01-27T09:33:30;102677.47;;;-0.45;100.00
13422;BME280;6782;55.904;13.396;2023-01-27T09:36:19;102669.06;;;-0.41;100.00
13422;BME280;6782;55.904;13.396;2023-01-27T09:39:07;102674.13;;;-0.27;100.00
13422;BME280;6782;55.904;13.396;2023-01-27T09:42:19;102677.69;;;-0.25;100.00
13422;BME280;6782;55.904;13.396;2023-01-27T09:45:32;102664.47;;;-0.29;100.00
13422;BME280;6782;55.904;13.396;2023-01-27T09:48:32;102659.91;;;-0.17;100.00
13422;BME280;6782;55.904;13.396;2023-01-27T09:51:32;102662.16;;;-0.07;100.00
13422;BME280;6782;55.904;13.396;2023-01-27T09:57:40;102655.81;;;0.04;100.00
13422;BME280;6782;55.904;13.396;2023-01-27T10:00:39;102654.28;;;0.25;100.00
13422;BME280;6782;55.904;13.396;2023-01-27T10:03:47;102655.06;;;0.24;100.00
13422;BME280;6782;55.904;13.396;2023-01-27T10:07:02;102651.94;;;0.49;100.00
13422;BME280;6782;55.904;13.396;2023-01-27T10:10:14;102627.47;;;0.44;100.00
13422;BME280;6782;55.904;13.396;2023-01-27T10:13:29;102625.13;;;0.48;100.00
13422;BME280;6782;55.904;13.396;2023-01-27T10:16:38;102622.00;;;0.55;100.00
13422;BME280;6782;55.904;13.396;2023-01-27T10:19:42;102612.16;;;0.68;100.00
13422;BME280;6782;55.904;13.396;2023-01-27T10:22:38;102605.34;;;0.70;100.00
13422;BME280;6782;55.904;13.396;2023-01-27T10:25:40;102593.03;;;0.66;100.00
13422;BME280;6782;55.904;13.396;2023-01-27T10:28:33;102595.25;;;0.76;100.00
13422;BME280;6782;55.904;13.396;2023-01-27T10:31:24;102576.47;;;0.81;100.00
13422;BME280;6782;55.904;13.396;2023-01-27T10:34:20;102557.66;;;0.87;100.00
13422;BME280;6782;55.904;13.396;2023-01-27T10:37:21;102550.06;;;0.91;100.00
13422;BME280;6782;55.904;13.396;2023-01-27T10:40:18;102538.94;;;0.94;100.00
13422;BME280;6782;55.904;13.396;2023-01-27T10:43:13;102522.88;;;1.02;100.00
13422;BME280;6782;55.904;13.396;2023-01-27T10:46:10;102507.00;;;0.96;100.00
13422;BME280;6782;55.904;13.396;2023-01-27T10:49:04;102483.81;;;1.01;100.00
13422;BME280;6782;55.904;13.396;2023-01-27T10:51:55;102473.00;;;1.11;100.00
13422;BME280;6782;55.904;13.396;2023-01-27T10:54:46;102459.50;;;1.19;100.00
13422;BME280;6782;55.904;13.396;2023-01-27T10:57:41;102440.56;;;1.22;100.00
13422;BME280;6782;55.904;13.396;2023-01-27T11:00:35;102431.13;;;1.24;100.00
13422;BME280;6782;55.904;13.396;2023-01-27T11:03:31;102423.13;;;1.40;100.00
13422;BME280;6782;55.904;13.396;2023-01-27T11:06:22;102405.34;;;1.51;100.00
13422;BME280;6782;55.904;13.396;2023-01-27T11:09:15;102382.00;;;1.52;100.00
13422;BME280;6782;55.904;13.396;2023-01-27T11:12:07;102359.63;;;1.56;100.00
13422;BME280;6782;55.904;13.396;2023-01-27T11:14:58;102354.84;;;1.66;100.00
13422;BME280;6782;55.904;13.396;2023-01-27T11:17:50;102336.97;;;1.75;100.00
13422;BME280;6782;55.904;13.396;2023-01-27T11:20:43;102310.75;;;1.69;100.00
13422;BME280;6782;55.904;13.396;2023-01-27T11:23:38;102308.50;;;1.78;100.00
13422;BME280;6782;55.904;13.396;2023-01-27T11:26:32;102273.63;;;1.73;100.00
13422;BME280;6782;55.904;13.396;2023-01-27T11:29:30;102254.88;;;1.82;100.00
13422;BME280;6782;55.904;13.396;2023-01-27T11:32:30;102249.84;;;1.86;100.00
13422;BME280;6782;55.904;13.396;2023-01-27T11:35:21;102225.69;;;1.90;100.00
13422;BME280;6782;55.904;13.396;2023-01-27T11:38:13;102214.50;;;1.93;100.00
13422;BME280;6782;55.904;13.396;2023-01-27T11:41:03;102184.16;;;1.94;100.00
13422;BME280;6782;55.904;13.396;2023-01-27T11:43:50;102164.63;;;2.05;100.00
13422;BME280;6782;55.904;13.396;2023-01-27T11:46:37;102132.53;;;2.06;100.00
13422;BME280;6782;55.904;13.396;2023-01-27T11:49:27;102120.38;;;2.05;100.00
13422;BME280;6782;55.904;13.396;2023-01-27T11:52:18;102087.09;;;1.95;100.00
13422;BME280;6782;55.904;13.396;2023-01-27T11:55:14;102070.03;;;2.03;100.00
13422;BME280;6782;55.904;13.396;2023-01-27T11:58:11;102057.50;;;2.18;100.00
13422;BME280;6782;55.904;13.396;2023-01-27T12:01:00;102059.09;;;2.41;100.00
13422;BME280;6782;55.904;13.396;2023-01-27T12:03:54;101996.47;;;2.08;100.00
13422;BME280;6782;55.904;13.396;2023-01-27T12:06:47;101979.88;;;2.05;100.00
13422;BME280;6782;55.904;13.396;2023-01-27T12:09:36;101975.94;;;2.17;100.00
13422;BME280;6782;55.904;13.396;2023-01-27T12:12:26;101970.28;;;2.32;100.00
13422;BME280;6782;55.904;13.396;2023-01-27T12:15:15;101940.06;;;2.37;100.00
13422;BME280;6782;55.904;13.396;2023-01-27T12:18:10;101907.69;;;2.26;100.00
13422;BME280;6782;55.904;13.396;2023-01-27T12:20:59;101893.81;;;2.27;100.00
13422;BME280;6782;55.904;13.396;2023-01-27T12:23:49;101880.22;;;2.37;100.00
13422;BME280;6782;55.904;13.396;2023-01-27T12:26:39;101850.31;;;2.23;100.00
13422;BME280;6782;55.904;13.396;2023-01-27T12:29:37;101832.13;;;2.24;100.00
13422;BME280;6782;55.904;13.396;2023-01-27T12:32:34;101812.97;;;2.21;100.00
13422;BME280;6782;55.904;13.396;2023-01-27T12:35:26;101872.47;;;2.71;100.00
13422;BME280;6782;55.904;13.396;2023-01-27T12:38:18;101790.09;;;2.42;100.00
13422;BME280;6782;55.904;13.396;2023-01-27T12:41:08;101792.09;;;2.52;100.00
13422;BME280;6782;55.904;13.396;2023-01-27T12:43:57;101804.59;;;2.65;100.00
13422;BME280;6782;55.904;13.396;2023-01-27T12:46:57;101803.38;;;2.85;100.00
13422;BME280;6782;55.904;13.396;2023-01-27T12:49:45;101778.91;;;2.79;100.00
13422;BME280;6782;55.904;13.396;2023-01-27T12:52:33;101752.97;;;2.83;100.00
13422;BME280;6782;55.904;13.396;2023-01-27T12:55:31;101724.03;;;2.71;100.00
13422;BME280;6782;55.904;13.396;2023-01-27T12:58:31;101736.59;;;2.89;100.00
13422;BME280;6782;55.904;13.396;2023-01-27T13:01:23;101697.34;;;2.81;100.00
13422;BME280;6782;55.904;13.396;2023-01-27T13:04:16;101651.63;;;2.57;100.00
13422;BME280;6782;55.904;13.396;2023-01-27T13:07:06;101649.75;;;2.51;100.00
13422;BME280;6782;55.904;13.396;2023-01-27T13:09:55;101666.63;;;2.67;100.00
13422;BME280;6782;55.904;13.396;2023-01-27T13:12:48;101644.69;;;2.57;100.00
13422;BME280;6782;55.904;13.396;2023-01-27T13:15:36;101652.75;;;2.68;100.00
13422;BME280;6782;55.904;13.396;2023-01-27T13:18:24;101678.38;;;2.87;100.00
13422;BME280;6782;55.904;13.396;2023-01-27T13:21:15;101609.00;;;2.51;100.00
13422;BME280;6782;55.904;13.396;2023-01-27T13:24:09;101603.72;;;2.50;100.00
13422;BME280;6782;55.904;13.396;2023-01-27T13:27:00;101632.94;;;2.74;100.00
13422;BME280;6782;55.904;13.396;2023-01-27T13:29:53;101606.59;;;2.62;100.00
13422;BME280;6782;55.904;13.396;2023-01-27T13:32:45;101595.28;;;2.60;100.00
13422;BME280;6782;55.904;13.396;2023-01-27T13:35:36;101643.78;;;2.92;100.00
13422;BME280;6782;55.904;13.396;2023-01-27T13:38:33;101587.94;;;2.80;100.00
13422;BME280;6782;55.904;13.396;2023-01-27T13:41:28;101574.94;;;2.81;100.00
13422;BME280;6782;55.904;13.396;2023-01-27T13:44:28;101524.88;;;2.54;100.00
13422;BME280;6782;55.904;13.396;2023-01-27T13:47:19;101489.75;;;2.35;100.00
13422;BME280;6782;55.904;13.396;2023-01-27T13:50:19;101517.72;;;2.45;100.00
13422;BME280;6782;55.904;13.396;2023-01-27T13:53:10;101520.41;;;2.48;100.00
13422;BME280;6782;55.904;13.396;2023-01-27T13:56:09;101495.84;;;2.37;100.00
13422;BME280;6782;55.904;13.396;2023-01-27T13:59:18;101502.06;;;2.44;100.00
13422;BME280;6782;55.904;13.396;2023-01-27T14:02:26;101526.69;;;2.58;100.00
13422;BME280;6782;55.904;13.396;2023-01-27T14:05:27;101549.03;;;2.89;100.00
13422;BME280;6782;55.904;13.396;2023-01-27T14:08:30;101457.22;;;2.57;100.00
13422;BME280;6782;55.904;13.396;2023-01-27T14:11:26;101484.56;;;2.77;100.00
13422;BME280;6782;55.904;13.396;2023-01-27T14:14:26;101439.78;;;2.53;100.00
13422;BME280;6782;55.904;13.396;2023-01-27T14:17:32;101502.97;;;2.86;100.00
13422;BME280;6782;55.904;13.396;2023-01-27T14:20:30;101497.88;;;2.92;100.00
13422;BME280;6782;55.904;13.396;2023-01-27T14:23:31;101424.53;;;2.71;100.00
13422;BME280;6782;55.904;13.396;2023-01-27T14:26:36;101489.09;;;2.87;100.00
13422;BME280;6782;55.904;13.396;2023-01-27T14:29:33;101437.41;;;2.65;100.00
13422;BME280;6782;55.904;13.396;2023-01-27T14:32:27;101490.75;;;2.82;100.00
13422;BME280;6782;55.904;13.396;2023-01-27T14:35:22;101470.56;;;2.72;100.00
13422;BME280;6782;55.904;13.396;2023-01-27T14:38:18;101485.31;;;2.73;100.00
13422;BME280;6782;55.904;13.396;2023-01-27T14:41:12;101544.47;;;2.77;100.00
13422;BME280;6782;55.904;13.396;2023-01-27T14:44:12;101526.75;;;2.61;100.00
13422;BME280;6782;55.904;13.396;2023-01-27T14:47:08;101605.59;;;2.94;100.00
13422;BME280;6782;55.904;13.396;2023-01-27T14:50:10;101570.81;;;2.92;100.00
13422;BME280;6782;55.904;13.396;2023-01-27T14:53:16;101522.69;;;2.75;100.00